Time;durP1;ratioP1;P1;durP2;ratioP2;P2;SDS_P1;SDS_P2;PMS_P1;PMS_P2;Temp;Humidity;BMP_temperature;BMP_pressure;BME280_temperature;BME280_humidity;BME280_pressure;Samples;Min_cycle;Max_cycle;Signal;HPM_P1;HPM_P2
2021/06/14 00:00:25;;;;;;;10.88;5.40;;;15.10;89.20;;;;;;4880732;29;20039;-82
2021/06/14 00:02:51;;;;;;;11.93;5.55;;;15.00;90.00;;;;;;4865135;29;20041;-82
2021/06/14 00:05:30;;;;;;;12.32;5.38;;;15.00;89.50;;;;;;4880731;29;20032;-82
2021/06/14 00:07:56;;;;;;;11.82;5.22;;;14.90;89.40;;;;;;4876638;29;20633;-80
2021/06/14 00:10:25;;;;;;;8.10;5.32;;;14.80;89.60;;;;;;4877153;29;20503;-83
2021/06/14 00:12:50;;;;;;;9.98;5.22;;;14.80;89.80;;;;;;4881480;29;20048;-81
2021/06/14 00:15:16;;;;;;;9.10;5.43;;;14.80;89.70;;;;;;4866670;29;20515;-80
2021/06/14 00:17:43;;;;;;;11.90;5.50;;;14.70;89.80;;;;;;4898085;29;20040;-82
2021/06/14 00:20:12;;;;;;;14.55;5.80;;;14.70;90.00;;;;;;4883330;29;20037;-81
2021/06/14 00:22:39;;;;;;;13.13;5.88;;;14.70;90.10;;;;;;4881495;29;20045;-81
2021/06/14 00:25:08;;;;;;;10.10;5.57;;;14.70;90.20;;;;;;4853796;29;20330;-80
2021/06/14 00:27:34;;;;;;;15.60;6.03;;;14.60;90.20;;;;;;4868039;29;20073;-80
2021/06/14 00:30:00;;;;;;;7.78;5.22;;;14.70;90.30;;;;;;4865719;29;20747;-82
2021/06/14 00:32:26;;;;;;;7.90;4.85;;;14.60;90.20;;;;;;4867531;29;20049;-82
2021/06/14 00:34:52;;;;;;;11.60;5.15;;;14.60;90.20;;;;;;4879830;29;20037;-82
2021/06/14 00:37:18;;;;;;;9.38;5.35;;;14.60;90.00;;;;;;4872645;29;20037;-80
2021/06/14 00:39:45;;;;;;;9.80;5.35;;;14.50;90.10;;;;;;4873088;29;20050;-82
2021/06/14 00:42:11;;;;;;;14.10;6.50;;;14.50;90.30;;;;;;4869227;29;20048;-80
2021/06/14 00:44:37;;;;;;;10.57;5.90;;;14.50;90.40;;;;;;4855591;29;20041;-82
2021/06/14 00:47:04;;;;;;;12.35;7.05;;;14.50;90.40;;;;;;4867400;29;20048;-82
2021/06/14 00:49:29;;;;;;;14.43;6.72;;;14.40;90.40;;;;;;4867744;29;20345;-79
2021/06/14 00:51:55;;;;;;;16.00;7.03;;;14.40;90.50;;;;;;4838921;29;20049;-81
2021/06/14 00:54:22;;;;;;;17.23;6.80;;;14.40;90.60;;;;;;4855385;29;20055;-82
2021/06/14 00:56:48;;;;;;;13.52;5.55;;;14.40;90.60;;;;;;4866761;29;20028;-81
2021/06/14 00:59:14;;;;;;;7.25;4.68;;;14.40;90.50;;;;;;4868108;29;20420;-82
2021/06/14 01:01:41;;;;;;;7.43;4.90;;;14.40;90.40;;;;;;4883294;29;20055;-79
2021/06/14 01:04:06;;;;;;;10.75;5.35;;;14.40;90.40;;;;;;4866123;29;20047;-79
2021/06/14 01:06:32;;;;;;;11.85;4.82;;;14.30;90.40;;;;;;4867259;29;20045;-82
2021/06/14 01:08:58;;;;;;;9.30;4.85;;;14.30;90.40;;;;;;4880231;29;20127;-82
2021/06/14 01:11:52;;;;;;;15.57;5.72;;;14.20;90.50;;;;;;4866192;29;20056;-83
2021/06/14 01:14:26;;;;;;;11.88;5.93;;;14.20;90.70;;;;;;4881386;29;20797;-82
2021/06/14 01:17:03;;;;;;;10.93;5.55;;;14.20;90.70;;;;;;4894098;29;20047;-82
2021/06/14 01:19:59;;;;;;;10.38;4.88;;;14.20;90.70;;;;;;4861268;29;20078;-80
2021/06/14 01:22:46;;;;;;;11.07;5.28;;;14.20;90.60;;;;;;4896461;29;20076;-82
2021/06/14 01:25:25;;;;;;;13.48;6.00;;;14.10;90.60;;;;;;4877305;29;20610;-82
2021/06/14 01:27:57;;;;;;;11.93;5.55;;;14.10;90.80;;;;;;4894605;29;20048;-80
2021/06/14 01:30:33;;;;;;;11.05;5.60;;;14.10;90.70;;;;;;4883052;29;20091;-81
2021/06/14 01:33:00;;;;;;;9.65;5.57;;;14.10;90.70;;;;;;4892553;29;20041;-83
2021/06/14 01:35:55;;;;;;;12.45;6.72;;;14.00;90.80;;;;;;4866995;29;20044;-82
2021/06/14 01:38:24;;;;;;;13.00;5.78;;;14.00;90.90;;;;;;4880153;29;20479;-82
2021/06/14 01:40:55;;;;;;;13.20;7.03;;;14.00;90.90;;;;;;4882536;29;20037;-81
2021/06/14 01:43:31;;;;;;;11.70;6.60;;;13.90;90.90;;;;;;4900326;29;20051;-80
2021/06/14 01:46:07;;;;;;;15.65;7.15;;;13.90;90.90;;;;;;4881299;29;20029;-81
2021/06/14 01:48:35;;;;;;;17.10;7.60;;;13.90;91.00;;;;;;4880693;29;20420;-82
2021/06/14 01:51:02;;;;;;;14.02;6.63;;;13.90;91.00;;;;;;4878530;29;20193;-81
2021/06/14 01:53:28;;;;;;;17.00;7.40;;;13.90;91.00;;;;;;4898357;29;20060;-82
2021/06/14 01:55:55;;;;;;;18.23;7.72;;;13.90;91.10;;;;;;4866141;29;20500;-80
2021/06/14 01:58:21;;;;;;;17.48;6.97;;;13.90;91.10;;;;;;4878427;29;20036;-82
2021/06/14 02:00:48;;;;;;;13.98;7.30;;;13.90;91.20;;;;;;4865989;29;20040;-82
2021/06/14 02:03:16;;;;;;;13.35;7.35;;;13.90;91.20;;;;;;4881345;29;20400;-81
2021/06/14 02:05:43;;;;;;;15.00;7.35;;;13.90;91.20;;;;;;4880360;29;20052;-79
2021/06/14 02:08:11;;;;;;;14.93;7.15;;;13.90;91.10;;;;;;4881643;29;20072;-82
2021/06/14 02:10:38;;;;;;;11.38;6.45;;;13.90;91.10;;;;;;4876981;29;20052;-82
2021/06/14 02:13:04;;;;;;;12.13;6.35;;;13.90;91.10;;;;;;4881933;29;20095;-82
2021/06/14 02:15:31;;;;;;;13.32;6.78;;;13.90;91.00;;;;;;4865503;29;20060;-79
2021/06/14 02:18:01;;;;;;;10.38;5.05;;;13.80;90.90;;;;;;4864846;29;20029;-83
2021/06/14 02:20:27;;;;;;;13.52;6.32;;;13.80;90.80;;;;;;4878594;29;20123;-83
2021/06/14 02:22:53;;;;;;;15.88;7.15;;;13.80;91.20;;;;;;4866153;29;20040;-81
2021/06/14 02:25:19;;;;;;;14.25;6.72;;;13.70;91.00;;;;;;4849991;29;20052;-82
2021/06/14 02:27:46;;;;;;;11.45;5.93;;;13.70;91.00;;;;;;4866347;29;20111;-79
2021/06/14 02:30:21;;;;;;;14.63;6.25;;;13.70;90.90;;;;;;4881139;29;20051;-82
2021/06/14 02:32:48;;;;;;;11.05;5.88;;;13.70;90.90;;;;;;4903688;29;22653;-81
2021/06/14 02:35:14;;;;;;;15.43;6.22;;;13.70;91.30;;;;;;4883200;29;20036;-83
2021/06/14 02:37:46;;;;;;;11.20;5.72;;;13.70;91.00;;;;;;4899412;29;20037;-82
2021/06/14 02:40:13;;;;;;;13.43;6.30;;;13.60;90.90;;;;;;4896636;29;20044;-83
2021/06/14 02:42:40;;;;;;;10.43;6.15;;;13.70;91.00;;;;;;4894193;29;20029;-83
2021/06/14 02:45:08;;;;;;;12.63;6.20;;;13.70;91.00;;;;;;4896789;29;20037;-83
2021/06/14 02:47:35;;;;;;;12.27;5.95;;;13.60;91.00;;;;;;4896491;29;20396;-81
2021/06/14 02:50:04;;;;;;;10.70;5.50;;;13.60;90.90;;;;;;4897498;29;20032;-82
2021/06/14 02:52:33;;;;;;;16.05;5.28;;;13.60;90.90;;;;;;4897593;29;20055;-82
2021/06/14 02:55:06;;;;;;;13.13;5.72;;;13.50;90.90;;;;;;4911588;29;20047;-82
2021/06/14 02:57:34;;;;;;;11.55;5.60;;;13.50;91.00;;;;;;4891724;29;20051;-82
2021/06/14 03:00:00;;;;;;;12.57;5.97;;;13.40;91.00;;;;;;4892399;29;20108;-82
2021/06/14 03:02:27;;;;;;;15.05;6.30;;;13.40;91.10;;;;;;4873480;29;20088;-81
2021/06/14 03:04:54;;;;;;;12.57;5.53;;;13.40;91.10;;;;;;4891986;29;20032;-82
2021/06/14 03:07:25;;;;;;;10.52;5.68;;;13.40;91.20;;;;;;4878832;29;20042;-83
2021/06/14 03:09:51;;;;;;;10.32;5.53;;;13.40;91.20;;;;;;4897571;29;20096;-83
2021/06/14 03:12:19;;;;;;;10.43;6.07;;;13.30;91.00;;;;;;4883664;29;20863;-83
2021/06/14 03:14:47;;;;;;;14.05;6.43;;;13.30;91.10;;;;;;4879084;29;20060;-81
2021/06/14 03:17:14;;;;;;;12.88;5.60;;;13.20;91.10;;;;;;4896147;29;20073;-82
2021/06/14 03:19:40;;;;;;;11.07;5.75;;;13.20;91.10;;;;;;4904941;29;20047;-82
2021/06/14 03:22:09;;;;;;;11.13;6.03;;;13.20;91.00;;;;;;4878530;29;20053;-82
2021/06/14 03:24:37;;;;;;;11.20;5.80;;;13.20;91.00;;;;;;4894284;29;20035;-82
2021/06/14 03:27:04;;;;;;;15.23;6.20;;;13.20;91.00;;;;;;4889764;29;20512;-81
2021/06/14 03:29:31;;;;;;;13.50;6.70;;;13.10;91.00;;;;;;4893193;29;20044;-83
2021/06/14 03:31:58;;;;;;;13.48;6.30;;;13.10;91.00;;;;;;4892951;29;20048;-83
2021/06/14 03:34:28;;;;;;;9.65;6.18;;;13.10;91.10;;;;;;4887809;29;20028;-80
2021/06/14 03:36:57;;;;;;;14.75;7.18;;;13.10;91.20;;;;;;4878651;29;20120;-84
2021/06/14 03:39:23;;;;;;;19.23;7.93;;;13.10;91.40;;;;;;4890379;29;20377;-81
2021/06/14 03:41:51;;;;;;;10.52;7.07;;;13.20;91.70;;;;;;4877703;29;20040;-80
2021/06/14 03:44:19;;;;;;;14.68;7.72;;;13.20;91.70;;;;;;4893724;29;20037;-81
2021/06/14 03:46:46;;;;;;;15.23;7.35;;;13.20;91.70;;;;;;4881353;29;20056;-81
2021/06/14 03:49:12;;;;;;;18.70;8.20;;;13.20;91.80;;;;;;4897095;29;20127;-84
2021/06/14 03:51:39;;;;;;;15.50;7.55;;;13.30;91.70;;;;;;4881577;29;20764;-84
2021/06/14 03:54:05;;;;;;;19.67;8.60;;;13.30;91.80;;;;;;4890098;29;20423;-83
2021/06/14 03:56:34;;;;;;;18.67;9.43;;;13.30;91.70;;;;;;4871704;29;20041;-83
2021/06/14 03:59:00;;;;;;;18.77;9.20;;;13.30;91.60;;;;;;4909137;29;20716;-81
2021/06/14 04:01:26;;;;;;;19.30;9.10;;;13.30;91.50;;;;;;4895356;29;20036;-83
2021/06/14 04:04:33;;;;;;;19.65;10.10;;;13.40;91.60;;;;;;4880107;29;20028;-80
2021/06/14 04:06:59;;;;;;;16.48;9.35;;;13.40;91.60;;;;;;4885627;29;20188;-84
2021/06/14 04:09:25;;;;;;;15.95;9.65;;;13.50;91.60;;;;;;4876415;29;20104;-82
2021/06/14 04:11:50;;;;;;;17.85;9.90;;;13.50;91.60;;;;;;4877834;29;20385;-82
2021/06/14 04:14:16;;;;;;;20.65;10.30;;;13.50;91.60;;;;;;4875984;29;20097;-83
2021/06/14 04:16:42;;;;;;;20.83;11.15;;;13.60;91.60;;;;;;4882229;29;20132;-81
2021/06/14 04:19:08;;;;;;;20.88;10.77;;;13.60;91.50;;;;;;4879486;29;20047;-83
2021/06/14 04:21:34;;;;;;;21.88;10.50;;;13.60;91.40;;;;;;4880722;29;21312;-84
2021/06/14 04:24:00;;;;;;;25.40;11.35;;;13.70;91.40;;;;;;4909198;29;20055;-82
2021/06/14 04:26:25;;;;;;;21.58;11.07;;;13.70;91.30;;;;;;4889071;29;20033;-80
2021/06/14 04:28:51;;;;;;;23.08;10.88;;;13.80;91.30;;;;;;4876266;29;20044;-82
2021/06/14 04:31:17;;;;;;;19.10;11.38;;;13.80;91.30;;;;;;4872171;29;20044;-85
2021/06/14 04:33:43;;;;;;;26.58;12.50;;;13.80;91.40;;;;;;4896352;29;20442;-81
2021/06/14 04:36:09;;;;;;;20.17;12.02;;;13.90;91.30;;;;;;4891169;29;20534;-84
2021/06/14 04:38:36;;;;;;;20.02;12.40;;;13.90;91.30;;;;;;4896914;29;20045;-83
2021/06/14 04:41:02;;;;;;;23.13;12.80;;;14.00;91.30;;;;;;4887121;29;20096;-81
2021/06/14 04:43:28;;;;;;;24.45;12.40;;;14.00;91.30;;;;;;4889079;29;20041;-83
2021/06/14 04:45:54;;;;;;;16.95;12.07;;;14.00;91.20;;;;;;4877153;29;20037;-85
2021/06/14 04:48:20;;;;;;;23.50;12.77;;;14.10;91.20;;;;;;4873931;29;20040;-84
2021/06/14 04:50:48;;;;;;;23.83;12.05;;;14.10;91.10;;;;;;4876934;29;20104;-83
2021/06/14 04:53:13;;;;;;;19.52;12.52;;;14.20;91.10;;;;;;4883818;29;20267;-86
2021/06/14 04:55:39;;;;;;;22.08;12.70;;;14.20;91.10;;;;;;4871784;29;20049;-83
2021/06/14 04:58:05;;;;;;;20.17;12.77;;;14.30;91.10;;;;;;4876913;29;20069;-84
2021/06/14 05:00:31;;;;;;;24.98;13.07;;;14.30;91.30;;;;;;4888151;29;20503;-85
2021/06/14 05:02:57;;;;;;;23.83;12.95;;;14.30;91.00;;;;;;4895976;29;20041;-82
2021/06/14 05:05:23;;;;;;;28.77;13.45;;;14.40;91.00;;;;;;4880169;29;20033;-85
2021/06/14 05:07:48;;;;;;;25.67;13.20;;;14.50;91.00;;;;;;4893070;29;20811;-83
2021/06/14 05:10:14;;;;;;;23.25;13.30;;;14.60;90.90;;;;;;4881091;29;20100;-85
2021/06/14 05:12:41;;;;;;;25.17;12.98;;;14.60;90.90;;;;;;4894779;29;20037;-84
2021/06/14 05:15:07;;;;;;;22.77;13.05;;;14.70;90.90;;;;;;4894078;29;20096;-84
2021/06/14 05:17:33;;;;;;;25.23;13.48;;;14.80;90.80;;;;;;4865213;29;20519;-83
2021/06/14 05:19:59;;;;;;;22.42;12.27;;;14.80;90.70;;;;;;4880811;29;20185;-84
2021/06/14 05:22:25;;;;;;;24.48;12.73;;;14.90;90.70;;;;;;4887028;29;20072;-84
2021/06/14 05:24:50;;;;;;;20.83;12.75;;;15.10;90.60;;;;;;4873106;29;20033;-82
2021/06/14 05:27:16;;;;;;;17.60;11.50;;;15.20;90.50;;;;;;4888705;29;20099;-83
2021/06/14 05:29:42;;;;;;;19.42;12.13;;;15.20;90.30;;;;;;4878556;29;20073;-86
2021/06/14 05:32:08;;;;;;;21.90;12.45;;;15.30;90.10;;;;;;4896567;29;20088;-85
2021/06/14 05:34:35;;;;;;;19.35;12.05;;;15.40;90.00;;;;;;4892094;29;20048;-86
2021/06/14 05:37:00;;;;;;;24.02;12.15;;;15.50;89.70;;;;;;4877147;29;20037;-84
2021/06/14 05:39:27;;;;;;;21.48;12.32;;;15.60;89.70;;;;;;4889990;29;20029;-84
2021/06/14 05:41:53;;;;;;;24.75;12.45;;;15.70;89.70;;;;;;4869843;29;20055;-84
2021/06/14 05:44:19;;;;;;;20.65;11.73;;;15.80;89.50;;;;;;4880071;29;20040;-83
2021/06/14 05:46:45;;;;;;;20.48;11.23;;;15.90;89.20;;;;;;4895531;29;20732;-82
2021/06/14 05:49:12;;;;;;;18.45;11.65;;;16.00;88.90;;;;;;4884391;29;20029;-83
2021/06/14 05:51:39;;;;;;;23.05;11.70;;;16.10;88.50;;;;;;4899722;29;20500;-83
2021/06/14 05:54:06;;;;;;;26.55;11.95;;;16.20;88.10;;;;;;4866687;29;20064;-84
2021/06/14 05:56:32;;;;;;;16.95;10.50;;;16.30;87.60;;;;;;4900180;29;20052;-83
2021/06/14 05:58:58;;;;;;;17.15;10.07;;;16.40;87.00;;;;;;4894116;29;20040;-83
2021/06/14 06:01:24;;;;;;;17.02;10.07;;;16.60;86.80;;;;;;4882278;29;20041;-83
2021/06/14 06:03:50;;;;;;;24.65;10.20;;;16.60;86.50;;;;;;4896512;29;20106;-84
2021/06/14 06:06:16;;;;;;;19.35;9.38;;;16.70;86.20;;;;;;4886570;29;20032;-81
2021/06/14 06:08:42;;;;;;;20.35;9.73;;;16.90;85.40;;;;;;4899564;29;20385;-84
2021/06/14 06:11:08;;;;;;;12.27;8.50;;;17.00;84.60;;;;;;4895598;29;20064;-85
2021/06/14 06:13:34;;;;;;;14.80;8.10;;;17.10;84.00;;;;;;4882072;29;20055;-82
2021/06/14 06:15:59;;;;;;;18.63;8.93;;;17.20;83.20;;;;;;4888110;29;20642;-85
2021/06/14 06:18:25;;;;;;;15.25;9.07;;;17.30;82.60;;;;;;4883647;29;20037;-86
2021/06/14 06:20:52;;;;;;;16.88;8.23;;;17.40;81.90;;;;;;4899833;29;20138;-84
2021/06/14 06:23:18;;;;;;;17.27;8.77;;;17.60;82.00;;;;;;4878967;29;20578;-82
2021/06/14 06:25:44;;;;;;;17.50;8.32;;;17.70;81.60;;;;;;4879551;29;20044;-89
2021/06/14 06:28:11;;;;;;;15.13;8.63;;;17.80;80.80;;;;;;4862248;29;20091;-86
2021/06/14 06:30:37;;;;;;;15.70;7.40;;;17.90;80.00;;;;;;4857313;29;20116;-84
2021/06/14 06:33:04;;;;;;;15.57;7.95;;;18.00;79.50;;;;;;4907305;29;20068;-87
2021/06/14 06:35:31;;;;;;;13.48;7.32;;;18.10;78.90;;;;;;4887966;29;20126;-84
2021/06/14 06:37:56;;;;;;;16.65;7.38;;;18.30;78.20;;;;;;4888611;29;20458;-85
2021/06/14 06:40:23;;;;;;;15.80;7.10;;;18.40;77.00;;;;;;4884277;29;20029;-86
2021/06/14 06:42:50;;;;;;;14.50;7.50;;;18.50;76.40;;;;;;4890744;29;20033;-83
2021/06/14 06:45:16;;;;;;;12.55;6.05;;;18.60;75.80;;;;;;4875380;29;20065;-84
2021/06/14 06:47:42;;;;;;;18.35;6.20;;;18.70;75.00;;;;;;4876505;29;20719;-84
2021/06/14 06:50:09;;;;;;;12.73;6.63;;;18.90;74.50;;;;;;4874835;29;20443;-81
2021/06/14 06:52:37;;;;;;;19.17;6.72;;;19.00;74.00;;;;;;4863079;29;20055;-85
2021/06/14 06:55:08;;;;;;;10.98;5.47;;;19.00;73.20;;;;;;4890394;29;20748;-86
2021/06/14 06:57:35;;;;;;;11.55;5.65;;;19.20;73.30;;;;;;4892613;29;20037;-85
2021/06/14 07:00:02;;;;;;;11.00;5.43;;;19.30;72.10;;;;;;4861449;29;20044;-84
2021/06/14 07:02:27;;;;;;;12.25;5.72;;;19.40;70.50;;;;;;4889576;29;20040;-83
2021/06/14 07:04:53;;;;;;;11.40;5.70;;;19.50;69.50;;;;;;4877980;29;20095;-88
2021/06/14 07:07:19;;;;;;;12.05;5.82;;;19.60;69.20;;;;;;4877373;29;20040;-85
2021/06/14 07:09:45;;;;;;;11.48;5.35;;;19.70;68.00;;;;;;4874223;29;20037;-86
2021/06/14 07:12:11;;;;;;;10.00;5.13;;;19.80;67.40;;;;;;4862813;29;20047;-83
2021/06/14 07:14:37;;;;;;;11.55;4.95;;;19.80;66.90;;;;;;4875483;29;20041;-86
2021/06/14 07:17:02;;;;;;;13.05;5.45;;;19.90;67.50;;;;;;4872268;29;20036;-84
2021/06/14 07:19:28;;;;;;;11.00;6.00;;;20.10;67.20;;;;;;4874931;29;21017;-83
2021/06/14 07:21:55;;;;;;;11.70;5.45;;;20.20;66.50;;;;;;4873798;29;20036;-86
2021/06/14 07:24:21;;;;;;;10.30;4.65;;;20.30;65.50;;;;;;4857872;29;20041;-86
2021/06/14 07:26:47;;;;;;;8.55;3.63;;;20.30;62.60;;;;;;4889729;29;20476;-86
2021/06/14 07:29:12;;;;;;;10.98;4.50;;;20.40;60.80;;;;;;4857002;29;20073;-84
2021/06/14 07:31:39;;;;;;;12.60;4.32;;;20.40;60.90;;;;;;4883298;29;20021;-86
2021/06/14 07:34:07;;;;;;;9.65;4.00;;;20.50;60.60;;;;;;4874830;29;20045;-85
2021/06/14 07:36:34;;;;;;;9.68;4.38;;;20.50;61.10;;;;;;4875343;29;20902;-82
2021/06/14 07:39:01;;;;;;;11.40;4.20;;;20.60;60.40;;;;;;4887780;29;20403;-84
2021/06/14 07:41:27;;;;;;;8.50;4.68;;;20.70;60.20;;;;;;4887642;29;20032;-83
2021/06/14 07:43:53;;;;;;;11.73;4.97;;;20.80;59.40;;;;;;4886038;29;20048;-84
2021/06/14 07:46:19;;;;;;;11.73;4.72;;;20.80;58.60;;;;;;4871995;29;20036;-81
2021/06/14 07:48:45;;;;;;;14.52;4.40;;;20.90;59.00;;;;;;4893293;29;20032;-82
2021/06/14 07:51:12;;;;;;;13.23;4.80;;;21.00;58.90;;;;;;4877958;29;20202;-82
2021/06/14 07:53:39;;;;;;;10.00;4.80;;;21.00;59.10;;;;;;4875681;29;20040;-84
2021/06/14 07:56:07;;;;;;;13.52;5.10;;;21.10;59.20;;;;;;4876290;29;20048;-84
2021/06/14 07:58:33;;;;;;;16.08;4.90;;;21.20;59.40;;;;;;4863875;29;20041;-83
2021/06/14 08:01:01;;;;;;;20.92;5.15;;;21.30;59.20;;;;;;4877851;29;20120;-85
2021/06/14 08:03:29;;;;;;;11.10;4.80;;;21.40;58.60;;;;;;4861200;29;20050;-84
2021/06/14 08:05:55;;;;;;;20.33;4.97;;;21.50;58.80;;;;;;4849397;29;20108;-83
2021/06/14 08:08:20;;;;;;;15.30;5.28;;;21.60;58.50;;;;;;4871959;29;20163;-83
2021/06/14 08:10:48;;;;;;;11.10;4.78;;;21.60;57.90;;;;;;4895175;29;20040;-82
2021/06/14 08:13:14;;;;;;;15.98;5.13;;;21.60;57.80;;;;;;4880845;29;20045;-83
2021/06/14 08:15:40;;;;;;;15.15;5.38;;;21.70;57.90;;;;;;4881306;29;20059;-83
2021/06/14 08:25:57;;;;;;;12.18;4.72;;;21.70;55.70;;;;;;4893517;29;20741;-83
2021/06/14 08:28:23;;;;;;;6.70;4.18;;;21.80;56.10;;;;;;4883201;29;20051;-84
2021/06/14 08:30:50;;;;;;;9.95;4.32;;;21.80;55.90;;;;;;4894140;29;20048;-83
2021/06/14 08:33:15;;;;;;;12.27;4.35;;;21.90;55.40;;;;;;4895616;29;20057;-82
2021/06/14 08:35:41;;;;;;;10.18;4.95;;;21.90;55.80;;;;;;4894018;29;20092;-82
2021/06/14 08:38:07;;;;;;;13.25;4.53;;;21.90;55.70;;;;;;4869392;29;20069;-83
2021/06/14 08:40:36;;;;;;;8.20;4.32;;;21.90;55.10;;;;;;4893969;29;20033;-84
2021/06/14 08:43:04;;;;;;;13.35;5.00;;;21.90;55.30;;;;;;4893732;29;20093;-84
2021/06/14 08:45:33;;;;;;;10.85;4.30;;;22.00;54.70;;;;;;4879652;29;20483;-83
2021/06/14 08:47:59;;;;;;;9.70;4.43;;;22.00;55.40;;;;;;4879180;29;20096;-83
2021/06/14 08:50:25;;;;;;;12.00;4.82;;;22.00;55.80;;;;;;4884834;29;20100;-82
2021/06/14 08:52:53;;;;;;;10.27;4.80;;;22.00;55.60;;;;;;4881498;29;20044;-85
2021/06/14 08:55:19;;;;;;;16.48;4.78;;;22.10;55.40;;;;;;4897508;29;20029;-83
2021/06/14 08:57:46;;;;;;;13.07;4.72;;;22.10;56.00;;;;;;4874163;29;20800;-84
2021/06/14 09:00:19;;;;;;;11.90;5.05;;;22.20;55.90;;;;;;4887741;29;20056;-82
2021/06/14 09:02:45;;;;;;;12.45;5.38;;;22.30;56.60;;;;;;4900801;29;20037;-83
2021/06/14 09:05:12;;;;;;;13.02;5.38;;;22.30;56.00;;;;;;4889598;29;20032;-83
2021/06/14 09:07:40;;;;;;;12.77;5.45;;;22.40;56.00;;;;;;4905148;29;20036;-84
2021/06/14 09:10:06;;;;;;;12.68;5.75;;;22.40;55.70;;;;;;4888219;29;20295;-83
2021/06/14 09:12:40;;;;;;;17.23;5.65;;;22.40;55.20;;;;;;4892736;29;20035;-82
2021/06/14 09:15:11;;;;;;;13.02;5.05;;;22.50;55.90;;;;;;4887230;29;20623;-84
2021/06/14 09:17:38;;;;;;;11.43;5.55;;;22.50;56.10;;;;;;4881119;29;20067;-82
2021/06/14 09:20:14;;;;;;;11.23;4.95;;;22.50;55.80;;;;;;4899574;29;20051;-82
2021/06/14 09:22:41;;;;;;;16.38;6.18;;;22.60;55.30;;;;;;4899185;29;20033;-82
2021/06/14 09:25:14;;;;;;;13.25;6.80;;;22.60;54.80;;;;;;4883724;29;20197;-83
2021/06/14 09:27:50;;;;;;;11.80;5.53;;;22.70;54.80;;;;;;4899249;29;20040;-82
2021/06/14 09:30:30;;;;;;;11.48;5.13;;;22.70;54.20;;;;;;4899259;29;20036;-82
2021/06/14 09:33:00;;;;;;;12.77;5.38;;;22.70;54.70;;;;;;4891621;29;20543;-82
2021/06/14 09:35:34;;;;;;;12.32;5.78;;;22.70;53.90;;;;;;4895687;29;20078;-85
2021/06/14 09:38:08;;;;;;;15.68;5.80;;;22.70;53.90;;;;;;4893163;29;20044;-82
2021/06/14 09:40:41;;;;;;;14.85;5.50;;;22.70;55.70;;;;;;4892382;29;20447;-81
2021/06/14 09:43:09;;;;;;;11.82;4.85;;;22.80;55.90;;;;;;4898563;29;20035;-84
2021/06/14 09:45:45;;;;;;;10.50;4.90;;;22.80;54.70;;;;;;4870790;29;20037;-83
2021/06/14 09:48:18;;;;;;;14.23;5.55;;;22.80;54.90;;;;;;4874998;29;20044;-82
2021/06/14 09:50:46;;;;;;;12.95;5.18;;;22.90;55.00;;;;;;4874753;29;20171;-84
2021/06/14 09:53:18;;;;;;;13.10;5.07;;;23.00;54.90;;;;;;4887910;29;20135;-82
2021/06/14 09:55:46;;;;;;;10.73;4.57;;;23.00;54.80;;;;;;4888008;29;20033;-83
2021/06/14 09:58:26;;;;;;;9.82;4.70;;;23.10;55.30;;;;;;4885132;29;20492;-83
2021/06/14 10:01:03;;;;;;;13.30;5.60;;;23.10;55.70;;;;;;4871569;29;20048;-81
2021/06/14 10:03:47;;;;;;;11.30;4.53;;;23.10;55.30;;;;;;4884106;29;20033;-81
2021/06/14 10:06:25;;;;;;;12.18;5.05;;;23.20;55.10;;;;;;4899114;29;20040;-84
2021/06/14 10:08:51;;;;;;;9.35;4.65;;;23.20;54.70;;;;;;4898119;29;20036;-84
2021/06/14 10:11:17;;;;;;;12.73;4.93;;;23.30;54.40;;;;;;4877326;29;20602;-83
2021/06/14 10:13:46;;;;;;;10.88;4.68;;;23.30;53.20;;;;;;4844683;29;20067;-82
2021/06/14 10:16:22;;;;;;;11.27;5.30;;;23.30;53.40;;;;;;4886925;29;20064;-83
2021/06/14 10:18:58;;;;;;;9.30;4.72;;;23.40;53.50;;;;;;4891470;29;20041;-84
2021/06/14 10:21:53;;;;;;;11.80;5.25;;;23.50;53.50;;;;;;4891660;29;20062;-85
2021/06/14 10:24:21;;;;;;;11.05;4.90;;;23.50;52.70;;;;;;4888601;29;20052;-81
2021/06/14 10:26:50;;;;;;;14.63;4.90;;;23.50;53.00;;;;;;4884820;29;20040;-82
2021/06/14 10:29:17;;;;;;;10.45;4.65;;;23.50;53.40;;;;;;4875454;29;20459;-82
2021/06/14 10:31:50;;;;;;;17.77;5.03;;;23.50;52.90;;;;;;4882203;29;20172;-83
2021/06/14 10:34:17;;;;;;;11.85;4.53;;;23.50;53.00;;;;;;4883964;29;20377;-81
2021/06/14 10:36:52;;;;;;;11.90;4.50;;;23.60;53.30;;;;;;4870068;29;20055;-83
2021/06/14 10:39:23;;;;;;;9.85;4.65;;;23.70;52.70;;;;;;4879116;29;20040;-82
2021/06/14 10:41:49;;;;;;;11.95;5.47;;;23.70;52.20;;;;;;4883858;29;20721;-84
2021/06/14 10:44:15;;;;;;;10.07;4.50;;;23.80;51.80;;;;;;4867502;29;20059;-82
2021/06/14 10:46:45;;;;;;;11.63;5.18;;;23.80;51.00;;;;;;4863249;29;20488;-81
2021/06/14 10:49:14;;;;;;;10.57;4.55;;;23.80;50.70;;;;;;4884756;29;20084;-82
2021/06/14 10:51:41;;;;;;;10.10;4.53;;;23.80;50.60;;;;;;4887184;29;20048;-81
2021/06/14 10:54:10;;;;;;;9.75;4.20;;;23.90;51.00;;;;;;4864898;29;20041;-84
2021/06/14 10:56:38;;;;;;;13.85;4.55;;;23.90;51.00;;;;;;4883187;29;20041;-83
2021/06/14 10:59:10;;;;;;;9.63;3.85;;;24.00;50.80;;;;;;4882706;29;20136;-84
2021/06/14 11:01:44;;;;;;;11.38;4.38;;;24.10;50.80;;;;;;4876088;29;20392;-83
2021/06/14 11:04:29;;;;;;;13.48;5.53;;;24.10;50.90;;;;;;4890776;29;20444;-82
2021/06/14 11:06:56;;;;;;;14.05;6.30;;;24.10;51.30;;;;;;4872357;29;20032;-83
2021/06/14 11:09:23;;;;;;;8.43;4.47;;;24.10;51.00;;;;;;4884606;29;21116;-83
2021/06/14 11:11:56;;;;;;;11.73;4.57;;;24.20;50.80;;;;;;4879325;29;20500;-84
2021/06/14 11:14:32;;;;;;;10.60;3.95;;;24.20;50.70;;;;;;4879568;29;20033;-83
2021/06/14 11:17:00;;;;;;;11.25;4.53;;;24.30;51.40;;;;;;4899792;29;20044;-83
2021/06/14 11:19:36;;;;;;;10.18;4.43;;;24.40;50.20;;;;;;4860050;29;20412;-81
2021/06/14 11:22:02;;;;;;;8.93;4.43;;;24.40;50.10;;;;;;4856643;29;20448;-84
2021/06/14 11:24:40;;;;;;;9.70;4.60;;;24.50;49.70;;;;;;4881345;29;20404;-84
2021/06/14 11:27:09;;;;;;;11.82;5.15;;;24.50;50.00;;;;;;4884024;29;20057;-84
2021/06/14 11:29:52;;;;;;;11.45;5.22;;;24.60;50.30;;;;;;4880770;29;20040;-84
2021/06/14 11:32:21;;;;;;;11.27;4.63;;;24.70;50.10;;;;;;4883008;29;20168;-83
2021/06/14 11:34:52;;;;;;;15.90;4.75;;;24.70;49.80;;;;;;4886042;29;20036;-82
2021/06/14 11:37:19;;;;;;;11.57;4.85;;;24.70;49.40;;;;;;4881153;29;20176;-85
2021/06/14 11:39:45;;;;;;;14.50;5.28;;;24.70;49.00;;;;;;4853286;29;20060;-86
2021/06/14 11:42:18;;;;;;;9.05;4.80;;;24.80;50.00;;;;;;4868221;29;20033;-85
2021/06/14 11:44:54;;;;;;;9.07;4.22;;;24.90;50.10;;;;;;4867666;29;20044;-84
2021/06/14 11:47:25;;;;;;;11.48;4.68;;;25.00;51.20;;;;;;4883875;29;20499;-84
2021/06/14 11:49:53;;;;;;;12.50;5.03;;;25.00;50.00;;;;;;4874205;29;20045;-86
2021/06/14 11:52:35;;;;;;;7.93;4.30;;;25.10;49.50;;;;;;4882507;29;20037;-85
2021/06/14 11:55:09;;;;;;;9.73;4.78;;;25.10;49.80;;;;;;4897626;29;20044;-84
2021/06/14 11:57:38;;;;;;;10.77;4.78;;;25.10;49.20;;;;;;4890795;29;20603;-83
2021/06/14 12:00:11;;;;;;;16.80;4.47;;;25.10;48.80;;;;;;4888593;29;20140;-84
2021/06/14 12:02:38;;;;;;;10.75;4.47;;;25.10;48.30;;;;;;4883472;29;20472;-83
2021/06/14 12:05:06;;;;;;;11.60;4.40;;;25.20;48.20;;;;;;4864901;29;20123;-81
2021/06/14 12:07:38;;;;;;;11.05;4.78;;;25.20;48.70;;;;;;4882811;29;20047;-84
2021/06/14 12:10:06;;;;;;;;;;;25.20;48.60;;;;;;4896564;29;20076;-85
2021/06/14 12:12:32;;;;;;;11.38;4.88;;;25.30;50.20;;;;;;4887002;29;20174;-85
2021/06/14 12:14:58;;;;;;;8.57;4.97;;;25.30;49.50;;;;;;4867991;29;20037;-83
2021/06/14 12:17:32;;;;;;;7.80;4.40;;;25.30;48.70;;;;;;4874875;29;20037;-83
2021/06/14 12:20:00;;;;;;;9.75;3.97;;;25.40;49.30;;;;;;4885116;29;20428;-84
2021/06/14 12:22:28;;;;;;;9.13;4.32;;;25.50;49.70;;;;;;4887237;29;20041;-82
2021/06/14 12:24:54;;;;;;;11.30;4.32;;;25.60;49.20;;;;;;4890291;29;20032;-82
2021/06/14 12:27:21;;;;;;;9.32;4.20;;;25.60;48.50;;;;;;4898761;29;20049;-83
2021/06/14 12:29:59;;;;;;;11.07;4.53;;;25.70;48.00;;;;;;4880349;29;20040;-81
2021/06/14 12:32:24;;;;;;;13.45;5.10;;;25.60;47.70;;;;;;4881887;29;20048;-82
2021/06/14 12:34:51;;;;;;;14.93;4.70;;;25.70;48.00;;;;;;4882282;29;20080;-84
2021/06/14 12:37:22;;;;;;;11.15;5.30;;;25.70;47.50;;;;;;4878134;29;20120;-82
2021/06/14 12:40:09;;;;;;;12.77;4.85;;;25.70;47.20;;;;;;4886375;29;20079;-84
2021/06/14 12:42:36;;;;;;;6.90;3.75;;;25.70;48.10;;;;;;4863981;29;20463;-83
2021/06/14 12:45:10;;;;;;;8.52;4.50;;;25.80;47.80;;;;;;4869715;29;20052;-82
2021/06/14 12:47:48;;;;;;;10.60;4.45;;;25.80;48.20;;;;;;4882892;29;20334;-81
2021/06/14 12:50:24;;;;;;;8.32;4.55;;;25.90;48.00;;;;;;4863516;29;20087;-82
2021/06/14 12:52:51;;;;;;;6.45;3.72;;;26.00;47.00;;;;;;4891878;29;20033;-83